Weather History for Watford City, ND

Change the Weather History Date:

Tuesday, May 28, 2013

  Actual Average (KISN) Record (KISN)
Temperature  
Mean Temperature 60 °F 58 °F  
Max Temperature 66 °F 71 °F 96 °F (1919)
Min Temperature 53 °F 45 °F 21 °F (1947)
Degree Days  
Heating Degree Days 6 8  
Month to date heating degree days 327  
Since 1 July heating degree days 8852  
Growing Degree Days 10 (Base 50)    
Moisture  
Dew Point 54 °F    
Average Humidity 85    
Maximum Humidity 100    
Minimum Humidity 60    
Precipitation  
Precipitation 0.05 in 0.08 in 0.69 in (1982)
Month to date precipitation 1.69  
Year to date precipitation 4.38  
Sea Level Pressure  
Sea Level Pressure 29.64 in    
Wind  
Wind Speed 7 mph (West)    
Max Wind Speed 13 mph    
Max Gust Speed 20 mph    
Visibility 10 miles    
Events Rain    
T = Trace of Precipitation, MM = Missing Value Source: NWS Daily Summary

Daily Weather History Graph

Daily Weather History Graph

Search for Another Location

Airport:

Trip Planner

Search our weather history database for the weather conditions in past years. The results will help you decide how hot, cold, wet, or windy it might be!

Date:

Astronomy

May. 28, 2013 Rise Set
Actual Time 6:01 AM CDT 9:40 PM CDT
Civil Twilight 5:22 AM CDT 10:19 PM CDT
Nautical Twilight 4:29 AM CDT 11:11 PM CDT
Astronomical Twilight 3:17 AM CDT 12:25 AM CDT
Moon 12:13 AM CDT 9:59 AM CDT
Length of Visible Light 16h 56m
Length of Day
15h 38m
Waning Gibbous, 82% of the Moon is Illuminated
May 28
Waning Gibbous
May 31
Last Quarter
Jun 8
New
Jun 16
First Quarter
Jun 23
Full

Hourly Weather History & Observations

Time (CDT) Temp. Dew Point Humidity Pressure Visibility Wind Dir Wind Speed Gust Speed Precip Events Conditions
12:15 AM 55.4 °F 55.4 °F 100% 29.66 in 10.0 mi SE 5.8 mph - N/A   Mostly Cloudy
12:35 AM 55.4 °F 55.4 °F 100% 29.66 in 10.0 mi SE 6.9 mph - N/A   Overcast
12:55 AM 55.4 °F 55.4 °F 100% 29.64 in 10.0 mi SE 5.8 mph - N/A   Overcast
1:15 AM 55.4 °F 55.4 °F 100% 29.64 in 10.0 mi SE 9.2 mph - N/A   Overcast
1:35 AM 55.4 °F 55.4 °F 100% 29.64 in 10.0 mi SE 6.9 mph - N/A   Mostly Cloudy
1:55 AM 55.4 °F 55.4 °F 100% 29.63 in 10.0 mi SSE 4.6 mph - N/A   Overcast
2:15 AM 55.4 °F 55.4 °F 100% 29.63 in 10.0 mi WSW 8.1 mph - N/A   Overcast
2:35 AM 55.4 °F 55.4 °F 100% 29.64 in 10.0 mi West 5.8 mph - N/A   Overcast
2:55 AM 55.4 °F 55.4 °F 100% 29.63 in 10.0 mi SW 4.6 mph - N/A   Overcast
3:15 AM 55.4 °F 55.4 °F 100% 29.63 in 9.0 mi SW 5.8 mph - N/A Rain Light Rain
3:35 AM 55.4 °F 55.4 °F 100% 29.63 in 3.0 mi West 6.9 mph - 0.02 in Rain Light Rain
3:55 AM 55.4 °F 55.4 °F 100% 29.63 in 6.0 mi WSW 8.1 mph - 0.04 in Rain Light Rain
4:15 AM 53.6 °F 53.6 °F 100% 29.63 in 5.0 mi WSW 5.8 mph - 0.01 in Rain Light Rain
4:35 AM 55.4 °F 53.6 °F 94% 29.63 in 10.0 mi WSW 3.5 mph - 0.01 in Rain Light Rain
4:55 AM 53.6 °F 53.6 °F 100% 29.63 in 10.0 mi Calm Calm - 0.01 in   Overcast
5:15 AM 53.6 °F 53.6 °F 100% 29.62 in 10.0 mi WNW 3.5 mph - N/A   Mostly Cloudy
5:35 AM 53.6 °F 53.6 °F 100% 29.62 in 10.0 mi West 6.9 mph - N/A   Mostly Cloudy
5:55 AM 53.6 °F 53.6 °F 100% 29.62 in 10.0 mi West 8.1 mph - N/A   Mostly Cloudy
6:15 AM 53.6 °F 53.6 °F 100% 29.62 in 10.0 mi WSW 5.8 mph - N/A   Mostly Cloudy
6:35 AM 53.6 °F 53.6 °F 100% 29.63 in 10.0 mi West 5.8 mph - N/A   Mostly Cloudy
6:55 AM 53.6 °F 53.6 °F 100% 29.63 in 10.0 mi WSW 5.8 mph - N/A   Overcast
7:15 AM 53.6 °F 53.6 °F 100% 29.63 in 10.0 mi West 5.8 mph - N/A   Overcast
7:35 AM 53.6 °F 53.6 °F 100% 29.63 in 10.0 mi WSW 6.9 mph - N/A   Mostly Cloudy
7:55 AM 55.4 °F 55.4 °F 100% 29.63 in 10.0 mi West 5.8 mph - N/A   Mostly Cloudy
8:15 AM 55.4 °F 55.4 °F 100% 29.63 in 10.0 mi WSW 4.6 mph - N/A   Overcast
8:35 AM 55.4 °F 55.4 °F 100% 29.63 in 10.0 mi WSW 6.9 mph - N/A   Overcast
8:55 AM 55.4 °F 55.4 °F 100% 29.63 in 10.0 mi WSW 8.1 mph - N/A   Overcast
9:15 AM 55.4 °F 55.4 °F 100% 29.64 in 10.0 mi West 9.2 mph - N/A   Overcast
9:35 AM 55.4 °F 55.4 °F 100% 29.63 in 10.0 mi WSW 8.1 mph - N/A   Overcast
9:55 AM 57.2 °F 55.4 °F 94% 29.64 in 10.0 mi WSW 10.4 mph - N/A   Overcast
10:15 AM 57.2 °F 55.4 °F 94% 29.64 in 10.0 mi West 10.4 mph - N/A   Overcast
10:35 AM 57.2 °F 55.4 °F 94% 29.64 in 10.0 mi West 11.5 mph - N/A   Overcast
10:55 AM 57.2 °F 55.4 °F 94% 29.64 in 10.0 mi West 11.5 mph - N/A   Mostly Cloudy
11:15 AM 59.0 °F 55.4 °F 88% 29.63 in 10.0 mi West 8.1 mph - N/A   Mostly Cloudy
11:35 AM 60.8 °F 55.4 °F 82% 29.64 in 10.0 mi West 10.4 mph - N/A   Mostly Cloudy
11:55 AM 60.8 °F 55.4 °F 82% 29.64 in 10.0 mi West 10.4 mph - N/A   Mostly Cloudy
12:15 PM 62.6 °F 55.4 °F 77% 29.64 in 10.0 mi West 12.7 mph 17.3 mph N/A   Mostly Cloudy
12:35 PM 62.6 °F 53.6 °F 72% 29.64 in 10.0 mi WNW 10.4 mph - N/A   Mostly Cloudy
12:55 PM 62.6 °F 55.4 °F 77% 29.64 in 10.0 mi West 11.5 mph - N/A   Scattered Clouds
1:15 PM 62.6 °F 55.4 °F 77% 29.64 in 10.0 mi NW 11.5 mph - N/A   Scattered Clouds
1:35 PM 64.4 °F 53.6 °F 68% 29.64 in 10.0 mi NW 10.4 mph - N/A   Scattered Clouds
1:55 PM 64.4 °F 53.6 °F 68% 29.64 in 10.0 mi WNW 8.1 mph 16.1 mph N/A   Clear
2:15 PM 64.4 °F 53.6 °F 68% 29.64 in 10.0 mi West 9.2 mph - N/A   Scattered Clouds
2:35 PM 64.4 °F 53.6 °F 68% 29.64 in 10.0 mi NW 10.4 mph 16.1 mph N/A   Scattered Clouds
2:55 PM 66.2 °F 53.6 °F 64% 29.64 in 10.0 mi West 11.5 mph 18.4 mph N/A   Partly Cloudy
3:15 PM 64.4 °F 53.6 °F 68% 29.64 in 10.0 mi WNW 11.5 mph 19.6 mph N/A   Partly Cloudy
3:35 PM 64.4 °F 53.6 °F 68% 29.64 in 10.0 mi WNW 9.2 mph - N/A   Partly Cloudy
3:55 PM 64.4 °F 53.6 °F 68% 29.65 in 10.0 mi WNW 9.2 mph - N/A   Scattered Clouds
4:15 PM 64.4 °F 53.6 °F 68% 29.65 in 10.0 mi WNW 10.4 mph - N/A   Scattered Clouds
4:35 PM 64.4 °F 53.6 °F 68% 29.65 in 10.0 mi WNW 9.2 mph - N/A   Mostly Cloudy
4:55 PM 66.2 °F 55.4 °F 68% 29.65 in 10.0 mi NNW 11.5 mph 18.4 mph N/A   Mostly Cloudy
5:15 PM 66.2 °F 55.4 °F 68% 29.65 in 10.0 mi NW 10.4 mph - N/A   Clear
5:35 PM 66.2 °F 55.4 °F 68% 29.64 in 10.0 mi NNW 11.5 mph - N/A   Clear
5:55 PM 66.2 °F 53.6 °F 64% 29.64 in 10.0 mi NNW 8.1 mph - N/A   Clear
6:15 PM 66.2 °F 53.6 °F 64% 29.64 in 10.0 mi WNW 9.2 mph - N/A   Clear
6:35 PM 66.2 °F 53.6 °F 64% 29.64 in 10.0 mi NW 8.1 mph - N/A   Partly Cloudy
6:55 PM 66.2 °F 55.4 °F 68% 29.64 in 10.0 mi NW 10.4 mph - N/A   Partly Cloudy
7:15 PM 66.2 °F 53.6 °F 64% 29.64 in 10.0 mi NW 8.1 mph - N/A   Partly Cloudy
7:35 PM 66.2 °F 53.6 °F 64% 29.64 in 10.0 mi NW 9.2 mph - N/A   Partly Cloudy
7:55 PM 66.2 °F 51.8 °F 60% 29.64 in 10.0 mi NW 8.1 mph - N/A   Clear
8:15 PM 66.2 °F 53.6 °F 64% 29.64 in 10.0 mi NW 5.8 mph - N/A   Clear
8:35 PM 64.4 °F 53.6 °F 68% 29.64 in 10.0 mi NW 4.6 mph - N/A   Clear
8:55 PM 64.4 °F 53.6 °F 68% 29.64 in 10.0 mi NW 4.6 mph - N/A   Clear
9:15 PM 64.4 °F 53.6 °F 68% 29.65 in 10.0 mi West 3.5 mph - N/A   Clear
9:35 PM 62.6 °F 55.4 °F 77% 29.65 in 10.0 mi West 3.5 mph - N/A   Clear
9:55 PM 59.0 °F 55.4 °F 88% 29.66 in 10.0 mi Calm Calm - N/A   Clear
10:15 PM 57.2 °F 55.4 °F 94% 29.67 in 10.0 mi SSW 3.5 mph - N/A   Clear
10:35 PM 57.2 °F 55.4 °F 94% 29.67 in 10.0 mi Calm Calm - N/A   Clear
10:55 PM 57.2 °F 53.6 °F 88% 29.67 in 10.0 mi Calm Calm - N/A   Clear
11:15 PM 55.4 °F 53.6 °F 94% 29.68 in 10.0 mi Calm Calm - N/A   Clear
11:35 PM 55.4 °F 53.6 °F 94% 29.67 in 10.0 mi Calm Calm - N/A   Clear
11:55 PM 53.6 °F 53.6 °F 100% 29.68 in 10.0 mi Calm Calm - N/A   Clear